Terminal Aerodrome Forecast
Issued by NWS

Home | Current Version | Previous Version | Text Only | Print | Product List | Glossary On
Versions: 1 2 3 4 5 6 7 8 9 10 11 12 13 14 15 16 17
000
FTUS43 KEAX 030500
TAFMKC
TAF
KMKC 030520Z 0306/0406 17010KT P6SM OVC021
     FM031100 19016KT 5SM BR BKN008
     FM031400 20018G25KT P6SM OVC015
     FM032000 30013KT P6SM BKN035=

USA.gov is the U.S. government's official web portal to all federal, state and local government web resources and services.